createdAt,value
2019-04-23T00:01:08.046Z,3.67
2019-04-23T00:03:35.701Z,4.07
2019-04-23T00:06:12.122Z,2.00
2019-04-23T00:08:42.268Z,3.67
2019-04-23T00:11:08.093Z,4.13
2019-04-23T00:13:49.878Z,2.00
2019-04-23T00:16:15.521Z,6.20
2019-04-23T00:18:43.743Z,1.97
2019-04-23T00:21:26.911Z,5.33
2019-04-23T00:29:12.769Z,4.37
2019-04-23T00:31:31.679Z,3.00
2019-04-23T00:34:26.853Z,3.07
2019-04-23T00:36:37.795Z,3.43
2019-04-23T00:39:08.354Z,2.93
2019-04-23T00:41:42.694Z,2.00
2019-04-23T00:44:16.361Z,3.10
2019-04-23T00:46:42.014Z,2.60
2019-04-23T00:49:21.117Z,2.77
2019-04-23T00:54:22.563Z,2.93
2019-04-23T00:56:52.654Z,4.70
2019-04-23T00:59:24.013Z,4.17
2019-04-23T01:04:28.249Z,5.10
2019-04-23T01:07:00.988Z,5.03
2019-04-23T01:09:33.914Z,4.27
2019-04-23T01:11:57.917Z,7.53
2019-04-23T01:14:32.532Z,2.97
2019-04-23T01:17:08.403Z,2.73
2019-04-23T01:19:37.509Z,2.70
2019-04-23T01:21:55.717Z,2.73
2019-04-23T01:24:45.839Z,3.60
2019-04-23T01:30:18.048Z,2.90
2019-04-23T01:32:43.679Z,2.60
2019-04-23T01:37:47.738Z,3.43
2019-04-23T01:40:28.902Z,3.60
2019-04-23T01:42:49.271Z,4.60
2019-04-23T01:45:26.020Z,3.33
2019-04-23T01:47:58.401Z,4.53
2019-04-23T01:50:31.176Z,3.77
2019-04-23T01:53:05.619Z,4.43
2019-04-23T01:58:21.896Z,4.30
2019-04-23T02:00:45.312Z,3.90
2019-04-23T02:03:13.524Z,4.77
2019-04-23T02:05:42.636Z,3.70
2019-04-23T02:10:51.266Z,3.57
2019-04-23T02:15:47.438Z,5.33
2019-04-23T02:18:17.978Z,3.97
2019-04-23T02:20:52.623Z,6.00
2019-04-23T02:23:39.548Z,5.03
2019-04-23T02:26:09.027Z,6.50
2019-04-23T02:28:46.065Z,8.30
2019-04-23T02:33:51.451Z,4.03
2019-04-23T02:36:19.743Z,4.60
2019-04-23T02:43:59.226Z,3.47
2019-04-23T02:46:18.088Z,5.70
2019-04-23T02:51:39.635Z,3.50
2019-04-23T03:04:10.400Z,5.23
2019-04-23T03:06:39.031Z,5.50
2019-04-23T03:11:42.095Z,4.33
2019-04-23T03:14:20.698Z,5.10
2019-04-23T03:16:53.427Z,5.03
2019-04-23T03:19:15.314Z,3.63
2019-04-23T03:24:43.609Z,5.83
2019-04-23T03:39:52.759Z,5.87
2019-04-23T03:57:18.443Z,5.57
2019-04-23T04:02:35.305Z,5.43
2019-04-23T04:04:45.169Z,5.40
2019-04-23T04:07:32.745Z,6.10
2019-04-23T04:09:51.831Z,5.03
2019-04-23T04:17:37.608Z,5.70
2019-04-23T04:19:56.305Z,4.60
2019-04-23T04:25:04.714Z,8.17
2019-04-23T04:27:35.900Z,6.10
2019-04-23T04:32:40.137Z,4.93
2019-04-23T04:40:23.353Z,6.83
2019-04-23T04:45:16.730Z,6.03
2019-04-23T04:47:42.255Z,4.97
2019-04-23T04:50:12.101Z,5.63
2019-04-23T04:52:49.026Z,8.57
2019-04-23T04:55:23.484Z,5.97
2019-04-23T04:57:58.113Z,5.93
2019-04-23T05:00:20.727Z,5.60
2019-04-23T05:07:47.662Z,7.07
2019-04-23T05:13:03.532Z,7.03
2019-04-23T05:15:17.138Z,7.20
2019-04-23T05:18:19.489Z,6.47
2019-04-23T05:23:16.547Z,11.13
2019-04-23T05:25:40.078Z,9.27
2019-04-23T05:28:14.427Z,8.57
2019-04-23T05:30:46.395Z,9.17
2019-04-23T05:33:17.336Z,8.77
2019-04-23T05:36:06.047Z,10.50
2019-04-23T05:38:31.485Z,8.87
2019-04-23T05:40:53.681Z,8.23
2019-04-23T05:43:18.848Z,7.70
2019-04-23T05:45:46.690Z,8.63
2019-04-23T05:51:01.137Z,9.50
2019-04-23T05:53:27.848Z,10.50
2019-04-23T05:55:55.272Z,9.07
2019-04-23T05:58:31.551Z,9.83
2019-04-23T06:01:35.512Z,9.77
2019-04-23T06:03:48.941Z,8.67
2019-04-23T06:06:31.645Z,8.87
2019-04-23T06:08:53.249Z,9.37
2019-04-23T06:11:34.889Z,8.40
2019-04-23T06:14:02.111Z,9.47
2019-04-23T06:16:31.461Z,9.63
2019-04-23T06:19:01.415Z,13.20
2019-04-23T06:21:34.016Z,9.87
2019-04-23T06:24:10.392Z,8.67
2019-04-23T06:26:40.104Z,10.03
2019-04-23T06:29:06.753Z,9.37
2019-04-23T06:31:41.521Z,8.93
2019-04-23T06:34:14.229Z,11.70
2019-04-23T06:36:40.239Z,8.87
2019-04-23T06:39:10.276Z,10.87
2019-04-23T06:41:44.527Z,10.60
2019-04-23T06:44:19.200Z,12.10
2019-04-23T06:46:52.170Z,10.67
2019-04-23T06:49:24.681Z,11.77
2019-04-23T06:52:07.084Z,10.83
2019-04-23T06:54:29.816Z,12.83
2019-04-23T06:56:58.713Z,10.80
2019-04-23T06:59:24.578Z,9.97
2019-04-23T07:01:59.783Z,10.47
2019-04-23T07:09:34.925Z,9.67
2019-04-23T07:11:58.665Z,9.93
2019-04-23T07:14:35.833Z,9.77
2019-04-23T07:17:03.852Z,9.47
2019-04-23T07:19:37.170Z,9.57
2019-04-23T07:22:14.571Z,10.80
2019-04-23T07:24:36.625Z,10.17
2019-04-23T07:27:10.321Z,10.43
2019-04-23T07:29:40.290Z,10.00
2019-04-23T07:32:12.638Z,10.73
2019-04-23T07:34:52.590Z,10.30
2019-04-23T07:37:15.444Z,9.77
2019-04-23T07:40:07.886Z,9.87
2019-04-23T07:42:34.385Z,12.60
2019-04-23T07:47:32.166Z,14.23
2019-04-23T07:50:26.058Z,9.63
2019-04-23T07:52:54.574Z,8.93
2019-04-23T07:55:23.704Z,10.03
2019-04-23T07:57:53.446Z,10.70
2019-04-23T08:00:26.380Z,12.60
2019-04-23T08:02:44.019Z,9.97
2019-04-23T08:07:52.490Z,10.60
2019-04-23T08:10:24.652Z,11.70
2019-04-23T08:12:53.929Z,11.20
2019-04-23T08:15:23.157Z,9.93
2019-04-23T08:17:50.514Z,10.00
2019-04-23T08:20:29.972Z,9.47
2019-04-23T08:23:04.621Z,15.07
2019-04-23T08:25:39.560Z,11.83
2019-04-23T08:28:08.021Z,11.50
2019-04-23T08:30:42.266Z,10.87
2019-04-23T08:33:24.492Z,12.33
2019-04-23T08:35:45.321Z,10.07
2019-04-23T08:38:29.517Z,8.77
2019-04-23T08:45:52.497Z,13.00
2019-04-23T08:48:27.496Z,9.57
2019-04-23T08:51:08.140Z,10.90
2019-04-23T08:53:37.578Z,11.73
2019-04-23T08:55:55.013Z,11.77
2019-04-23T08:58:30.146Z,12.70
2019-04-23T09:06:06.446Z,11.90
2019-04-23T09:11:28.917Z,11.63
2019-04-23T09:13:53.207Z,9.57
2019-04-23T09:16:09.031Z,11.53
2019-04-23T09:18:37.186Z,10.67
2019-04-23T09:21:14.176Z,10.07
2019-04-23T09:26:08.395Z,10.83
2019-04-23T09:31:41.743Z,12.37
2019-04-23T09:41:42.045Z,12.43
2019-04-23T09:44:50.074Z,9.20
2019-04-23T09:47:08.358Z,15.87
2019-04-23T09:49:42.469Z,9.03
2019-04-23T09:52:13.326Z,12.70
2019-04-23T09:54:46.501Z,10.03
2019-04-23T09:57:04.189Z,9.70
2019-04-23T09:59:47.264Z,8.90
2019-04-23T10:02:06.690Z,8.83
2019-04-23T10:04:31.949Z,8.37
2019-04-23T10:07:01.939Z,8.33
2019-04-23T10:09:20.797Z,8.93
2019-04-23T10:11:51.146Z,8.73
2019-04-23T10:14:20.945Z,10.97
2019-04-23T10:16:51.663Z,10.13
2019-04-23T10:19:22.586Z,8.63
2019-04-23T10:21:53.356Z,9.27
2019-04-23T10:24:23.481Z,12.33
2019-04-23T10:26:52.971Z,8.73
2019-04-23T10:29:25.767Z,14.57
2019-04-23T10:31:55.625Z,10.43
2019-04-23T10:34:25.445Z,12.20
2019-04-23T10:36:55.582Z,10.20
2019-04-23T10:39:30.338Z,7.97
2019-04-23T10:41:57.589Z,8.33
2019-04-23T10:44:32.992Z,9.57
2019-04-23T10:47:35.482Z,10.40
2019-04-23T10:50:05.437Z,9.43
2019-04-23T10:52:40.991Z,9.10
2019-04-23T10:55:06.043Z,9.50
2019-04-23T10:57:31.257Z,10.00
2019-04-23T11:00:13.771Z,9.13
2019-04-23T11:03:06.292Z,8.60
2019-04-23T11:05:16.231Z,9.70
2019-04-23T11:07:53.661Z,7.97
2019-04-23T11:10:15.879Z,9.63
2019-04-23T11:18:07.144Z,8.03
2019-04-23T11:22:55.465Z,8.20
2019-04-23T11:28:13.609Z,8.23
2019-04-23T11:30:41.117Z,7.93
2019-04-23T11:33:15.246Z,11.60
2019-04-23T11:36:22.190Z,9.17
2019-04-23T11:38:43.720Z,11.67
2019-04-23T11:40:44.824Z,10.50
2019-04-23T11:43:22.677Z,10.53
2019-04-23T11:51:26.710Z,9.33
2019-04-23T11:53:29.677Z,8.73
2019-04-23T11:58:28.509Z,9.30
2019-04-23T12:01:23.766Z,8.70
2019-04-23T12:03:46.793Z,10.17
2019-04-23T12:06:20.952Z,12.40
2019-04-23T12:09:13.527Z,10.50
2019-04-23T12:11:52.961Z,8.07
2019-04-23T12:17:11.193Z,8.77
2019-04-23T12:22:03.007Z,19.07
2019-04-23T12:27:02.279Z,10.97
2019-04-23T12:29:37.475Z,9.97
2019-04-23T12:35:01.468Z,10.43
2019-04-23T12:37:36.382Z,9.50
2019-04-23T12:40:15.374Z,9.40
2019-04-23T12:45:14.345Z,7.40
2019-04-23T12:57:46.919Z,15.30
2019-04-23T13:02:55.519Z,7.80
2019-04-23T13:05:21.662Z,10.27
2019-04-23T13:10:22.234Z,7.43
2019-04-23T13:15:22.732Z,10.60
2019-04-23T13:17:54.102Z,11.63
2019-04-23T13:20:28.027Z,10.90
2019-04-23T13:23:01.268Z,11.70
2019-04-23T13:25:34.848Z,10.27
2019-04-23T13:33:20.954Z,14.07
2019-04-23T13:35:53.654Z,8.27
2019-04-23T13:40:55.739Z,9.27
2019-04-23T13:43:30.168Z,9.30
2019-04-23T13:48:15.092Z,14.37
2019-04-23T13:51:01.695Z,9.27
2019-04-23T13:55:52.520Z,9.20
2019-04-23T13:58:26.781Z,9.83
2019-04-23T14:03:50.598Z,6.20
2019-04-23T14:06:16.073Z,11.77
2019-04-23T14:08:47.023Z,8.03
2019-04-23T14:13:50.994Z,7.10
2019-04-23T14:21:25.591Z,6.80
2019-04-23T14:24:03.365Z,8.87
2019-04-23T14:28:53.402Z,9.23
2019-04-23T14:31:16.793Z,7.90
2019-04-23T14:44:08.213Z,8.37
2019-04-23T14:51:58.859Z,6.03
2019-04-23T14:55:01.364Z,7.90
2019-04-23T14:57:07.888Z,8.23
2019-04-23T14:59:30.733Z,6.47
2019-04-23T15:02:04.929Z,6.87
2019-04-23T15:04:39.758Z,4.90
2019-04-23T15:09:52.794Z,5.57
2019-04-23T15:12:16.083Z,5.75
2019-04-23T15:14:52.910Z,9.53
2019-04-23T15:17:23.638Z,7.30
2019-04-23T15:22:20.192Z,8.03
2019-04-23T15:25:19.354Z,7.10
2019-04-23T15:27:02.640Z,7.55
2019-04-23T15:29:45.782Z,8.30
2019-04-23T15:32:24.191Z,7.73
2019-04-23T15:35:08.831Z,4.57
2019-04-23T15:40:00.719Z,7.27
2019-04-23T15:42:29.525Z,7.70
2019-04-23T15:45:01.345Z,6.23
2019-04-23T15:50:10.826Z,7.17
2019-04-23T15:52:48.460Z,6.60
2019-04-23T15:55:20.783Z,8.13
2019-04-23T15:58:01.366Z,7.23
2019-04-23T16:00:10.736Z,8.30
2019-04-23T16:02:13.566Z,9.40
2019-04-23T16:04:44.029Z,6.57
2019-04-23T16:07:31.826Z,7.97
2019-04-23T16:10:17.810Z,10.90
2019-04-23T16:12:51.610Z,7.13
2019-04-23T16:15:16.694Z,7.53
2019-04-23T16:17:54.541Z,6.70
2019-04-23T16:20:31.888Z,7.90
2019-04-23T16:22:52.866Z,9.67
2019-04-23T16:25:20.362Z,6.87
2019-04-23T16:28:02.208Z,5.83
2019-04-23T16:30:40.746Z,7.73
2019-04-23T16:35:56.718Z,9.57
2019-04-23T16:40:47.670Z,8.47
2019-04-23T16:45:55.387Z,5.57
2019-04-23T16:48:36.669Z,11.07
2019-04-23T16:51:10.871Z,8.60
2019-04-23T16:53:26.115Z,8.30
2019-04-23T16:56:05.193Z,7.87
2019-04-23T17:01:05.836Z,8.07
2019-04-23T17:03:55.377Z,12.20
2019-04-23T17:11:09.698Z,5.85
2019-04-23T17:13:54.142Z,6.93
2019-04-23T17:18:44.244Z,16.63
2019-04-23T17:21:16.897Z,6.87
2019-04-23T17:23:49.691Z,11.43
2019-04-23T17:26:20.603Z,7.60
2019-04-23T17:28:44.648Z,5.73
2019-04-23T17:31:35.658Z,7.77
2019-04-23T17:33:51.561Z,6.97
2019-04-23T17:39:02.809Z,10.27
2019-04-23T17:41:43.566Z,9.78
2019-04-23T17:44:18.446Z,10.13
2019-04-23T17:46:44.906Z,6.60
2019-04-23T17:51:42.629Z,8.07
2019-04-23T17:54:17.442Z,10.10
2019-04-23T17:56:55.849Z,11.80
2019-04-23T17:59:20.503Z,8.93
2019-04-23T18:01:59.501Z,11.03
2019-04-23T18:12:10.163Z,10.53
2019-04-23T18:14:18.303Z,8.03
2019-04-23T18:17:09.380Z,8.03
2019-04-23T18:19:24.681Z,7.20
2019-04-23T18:25:00.848Z,8.73
2019-04-23T18:27:27.582Z,8.30
2019-04-23T18:30:04.270Z,9.30
2019-04-23T18:32:35.948Z,7.47
2019-04-23T18:35:15.473Z,8.57
2019-04-23T18:37:35.961Z,7.27
2019-04-23T18:40:06.846Z,9.33
2019-04-23T18:42:43.792Z,11.77
2019-04-23T18:45:20.237Z,7.73
2019-04-23T18:47:45.798Z,10.07
2019-04-23T18:50:14.793Z,8.07
2019-04-23T18:55:24.485Z,7.17
2019-04-23T18:57:54.524Z,9.07
2019-04-23T19:00:24.944Z,9.60
2019-04-23T19:03:29.686Z,11.03
2019-04-23T19:10:58.019Z,14.87
2019-04-23T19:13:31.228Z,8.37
2019-04-23T19:15:53.631Z,12.70
2019-04-23T19:18:44.856Z,9.40
2019-04-23T19:21:09.076Z,10.90
2019-04-23T19:23:39.300Z,10.83
2019-04-23T19:26:07.938Z,11.13
2019-04-23T19:31:31.384Z,11.10
2019-04-23T19:34:09.276Z,14.80
2019-04-23T19:36:28.187Z,11.40
2019-04-23T19:38:57.318Z,10.80
2019-04-23T19:41:25.560Z,10.93
2019-04-23T19:44:01.412Z,9.27
2019-04-23T19:46:48.923Z,10.43
2019-04-23T19:49:05.620Z,10.00
2019-04-23T19:51:39.775Z,11.37
2019-04-23T19:54:21.989Z,11.80
2019-04-23T19:56:45.146Z,11.23
2019-04-23T19:59:02.235Z,9.17
2019-04-23T20:01:41.728Z,10.13
2019-04-23T20:04:04.167Z,9.27
2019-04-23T20:07:13.159Z,15.70
2019-04-23T20:09:30.764Z,9.97
2019-04-23T20:11:52.988Z,10.90
2019-04-23T20:14:11.773Z,12.37
2019-04-23T20:17:04.414Z,9.87
2019-04-23T20:19:23.928Z,12.53
2019-04-23T20:22:07.502Z,14.60
2019-04-23T20:24:28.480Z,10.30
2019-04-23T20:26:59.384Z,10.00
2019-04-23T20:29:45.465Z,14.00
2019-04-23T20:32:57.167Z,11.50
2019-04-23T20:34:51.853Z,11.93
2019-04-23T20:37:05.524Z,10.77
2019-04-23T20:39:47.426Z,10.50
2019-04-23T20:52:10.092Z,10.53
2019-04-23T20:57:44.081Z,12.27
2019-04-23T21:05:17.905Z,10.53
2019-04-23T21:10:27.401Z,11.47
2019-04-23T21:17:58.335Z,10.90
2019-04-23T21:23:04.750Z,12.60
2019-04-23T21:25:44.209Z,14.77
2019-04-23T21:28:08.664Z,10.17
2019-04-23T21:30:49.084Z,10.90
2019-04-23T21:33:11.941Z,12.90
2019-04-23T21:36:12.492Z,11.97
2019-04-23T21:38:48.959Z,11.20
2019-04-23T21:41:27.166Z,17.77
2019-04-23T21:43:47.295Z,11.37
2019-04-23T21:46:18.517Z,15.40
2019-04-23T21:48:56.180Z,11.43
2019-04-23T21:51:24.730Z,13.40
2019-04-23T21:53:42.149Z,12.47
2019-04-23T21:58:53.338Z,12.70
2019-04-23T22:01:28.172Z,13.90
2019-04-23T22:06:31.568Z,15.10
2019-04-23T22:09:10.999Z,15.53
2019-04-23T22:11:53.713Z,12.93
2019-04-23T22:16:38.861Z,12.23
2019-04-23T22:19:13.915Z,14.77
2019-04-23T22:21:43.443Z,11.87
2019-04-23T22:26:34.453Z,11.53
2019-04-23T22:29:16.503Z,14.07
2019-04-23T22:36:48.186Z,14.63
2019-04-23T22:39:17.691Z,11.37
2019-04-23T22:41:50.425Z,11.37
2019-04-23T22:44:26.528Z,12.00
2019-04-23T22:49:29.238Z,12.27
2019-04-23T22:52:02.613Z,11.30
2019-04-23T22:54:32.483Z,11.00
2019-04-23T22:56:54.308Z,12.53
2019-04-23T23:01:59.117Z,13.23
2019-04-23T23:04:31.385Z,13.40
2019-04-23T23:10:00.769Z,13.87
2019-04-23T23:12:07.812Z,12.90
2019-04-23T23:14:35.422Z,14.47
2019-04-23T23:17:11.544Z,13.20
2019-04-23T23:24:46.076Z,15.30
2019-04-23T23:27:30.404Z,15.33
2019-04-23T23:29:49.372Z,15.67
2019-04-23T23:32:23.269Z,15.90
2019-04-23T23:35:00.750Z,13.87
2019-04-23T23:37:39.750Z,16.03
2019-04-23T23:39:58.361Z,15.23
2019-04-23T23:47:18.327Z,17.03
2019-04-23T23:50:01.518Z,17.07
2019-04-23T23:52:34.968Z,15.90
2019-04-23T23:55:03.783Z,17.30
